createdAt,value
2018-08-23T00:01:03.401Z,49.00
2018-08-23T00:02:07.825Z,49.00
2018-08-23T00:03:12.326Z,49.00
2018-08-23T00:04:16.705Z,49.10
2018-08-23T00:05:21.231Z,49.10
2018-08-23T00:06:25.753Z,49.10
2018-08-23T00:07:30.188Z,49.10
2018-08-23T00:08:34.857Z,49.10
2018-08-23T00:09:39.447Z,49.10
2018-08-23T00:10:43.943Z,49.10
2018-08-23T00:11:48.455Z,49.10
2018-08-23T00:12:53.184Z,49.20
2018-08-23T00:13:57.882Z,49.10
2018-08-23T00:15:02.326Z,49.10
2018-08-23T00:16:06.992Z,49.10
2018-08-23T00:17:11.718Z,49.10
2018-08-23T00:18:16.118Z,49.10
2018-08-23T00:19:20.709Z,49.20
2018-08-23T00:20:25.303Z,49.20
2018-08-23T00:21:29.765Z,49.20
2018-08-23T00:22:34.295Z,49.20
2018-08-23T00:23:38.658Z,49.20
2018-08-23T00:24:43.081Z,49.20
2018-08-23T00:25:47.885Z,49.20
2018-08-23T00:26:52.170Z,49.20
2018-08-23T00:27:56.780Z,49.20
2018-08-23T00:29:01.227Z,49.20
2018-08-23T00:30:05.952Z,49.20
2018-08-23T00:31:10.532Z,49.20
2018-08-23T00:32:14.998Z,49.20
2018-08-23T00:33:19.277Z,49.20
2018-08-23T00:34:23.726Z,49.20
2018-08-23T00:35:28.293Z,49.20
2018-08-23T00:36:32.941Z,49.30
2018-08-23T00:37:37.586Z,49.20
2018-08-23T00:38:42.294Z,49.20
2018-08-23T00:39:46.751Z,49.30
2018-08-23T00:40:51.087Z,49.30
2018-08-23T00:41:55.603Z,49.30
2018-08-23T00:43:00.097Z,49.30
2018-08-23T00:44:04.607Z,49.30
2018-08-23T00:45:09.175Z,49.30
2018-08-23T00:46:13.653Z,49.30
2018-08-23T00:47:18.181Z,49.30
2018-08-23T00:48:22.601Z,49.30
2018-08-23T00:49:27.081Z,49.30
2018-08-23T00:50:31.392Z,49.30
2018-08-23T00:51:35.998Z,49.40
2018-08-23T00:52:40.551Z,49.30
2018-08-23T00:53:45.164Z,49.30
2018-08-23T00:54:49.730Z,49.30
2018-08-23T00:55:54.195Z,49.40
2018-08-23T00:56:58.783Z,49.30
2018-08-23T00:58:03.250Z,49.40
2018-08-23T00:59:07.644Z,49.40
2018-08-23T01:00:12.148Z,49.40
2018-08-23T01:01:16.716Z,49.40
2018-08-23T01:02:21.232Z,49.40
2018-08-23T01:03:26.299Z,49.40
2018-08-23T01:04:30.680Z,49.40
2018-08-23T01:05:34.978Z,49.40
2018-08-23T01:06:39.430Z,49.40
2018-08-23T01:07:44.020Z,49.40
2018-08-23T01:08:48.383Z,49.40
2018-08-23T01:09:52.669Z,49.40
2018-08-23T01:10:57.086Z,49.40
2018-08-23T01:12:01.552Z,49.40
2018-08-23T01:13:06.035Z,49.40
2018-08-23T01:14:10.311Z,49.50
2018-08-23T01:15:14.657Z,49.40
2018-08-23T01:16:19.314Z,49.40
2018-08-23T01:17:23.873Z,49.40
2018-08-23T01:18:28.350Z,49.40
2018-08-23T01:19:32.991Z,49.40
2018-08-23T01:20:37.343Z,49.50
2018-08-23T01:21:41.933Z,49.50
2018-08-23T01:22:46.429Z,49.50
2018-08-23T01:23:51.048Z,49.50
2018-08-23T01:24:55.420Z,49.50
2018-08-23T01:25:59.875Z,49.50
2018-08-23T01:27:04.249Z,49.50
2018-08-23T01:28:08.653Z,49.50
2018-08-23T01:29:13.017Z,49.50
2018-08-23T01:30:17.506Z,49.50
2018-08-23T01:31:21.938Z,50.20
2018-08-23T01:32:26.400Z,49.50
2018-08-23T01:33:30.668Z,49.50
2018-08-23T01:34:35.022Z,49.50
2018-08-23T01:35:39.627Z,49.60
2018-08-23T01:36:44.242Z,50.20
2018-08-23T01:37:48.675Z,49.60
2018-08-23T01:38:53.174Z,49.60
2018-08-23T01:39:57.743Z,49.50
2018-08-23T01:41:02.182Z,49.60
2018-08-23T01:42:06.678Z,49.60
2018-08-23T01:43:11.141Z,49.60
2018-08-23T01:44:15.742Z,49.60
2018-08-23T01:45:20.024Z,49.60
2018-08-23T01:46:24.716Z,49.60
2018-08-23T01:47:29.189Z,49.60
2018-08-23T01:48:33.715Z,49.60
2018-08-23T01:49:38.153Z,49.60
2018-08-23T01:50:42.622Z,49.60
2018-08-23T01:51:47.097Z,49.60
2018-08-23T01:52:51.618Z,49.60
2018-08-23T01:53:55.947Z,49.60
2018-08-23T01:55:00.387Z,49.60
2018-08-23T01:56:04.931Z,49.60
2018-08-23T01:57:09.458Z,49.70
2018-08-23T01:58:13.916Z,49.60
2018-08-23T01:59:18.209Z,49.60
2018-08-23T02:00:22.682Z,49.70
2018-08-23T02:01:27.162Z,49.70
2018-08-23T02:02:31.783Z,49.70
2018-08-23T02:03:36.275Z,49.70
2018-08-23T02:04:40.731Z,49.70
2018-08-23T02:05:45.196Z,49.70
2018-08-23T02:06:49.757Z,49.70
2018-08-23T02:07:54.343Z,49.70
2018-08-23T02:08:58.933Z,49.70
2018-08-23T02:10:03.395Z,49.70
2018-08-23T02:11:07.958Z,50.30
2018-08-23T02:12:12.419Z,49.70
2018-08-23T02:13:16.997Z,49.70
2018-08-23T02:14:21.480Z,49.70
2018-08-23T02:15:26.281Z,49.70
2018-08-23T02:16:30.558Z,49.70
2018-08-23T02:17:35.015Z,49.70
2018-08-23T02:18:39.485Z,49.70
2018-08-23T02:19:43.896Z,49.70
2018-08-23T02:20:48.296Z,49.80
2018-08-23T02:21:52.818Z,49.70
2018-08-23T02:22:57.146Z,49.70
2018-08-23T02:24:01.616Z,49.70
2018-08-23T02:25:05.980Z,49.70
2018-08-23T02:26:10.314Z,49.80
2018-08-23T02:27:14.797Z,49.80
2018-08-23T02:28:19.252Z,49.80
2018-08-23T02:29:23.692Z,49.80
2018-08-23T02:30:28.094Z,49.80
2018-08-23T02:31:32.721Z,49.80
2018-08-23T02:32:37.231Z,49.80
2018-08-23T02:33:41.935Z,49.80
2018-08-23T02:34:46.448Z,49.80
2018-08-23T02:35:51.062Z,49.80
2018-08-23T02:36:55.508Z,49.80
2018-08-23T02:38:00.194Z,49.80
2018-08-23T02:39:04.680Z,49.80
2018-08-23T02:40:09.021Z,49.90
2018-08-23T02:41:13.832Z,49.80
2018-08-23T02:42:18.396Z,49.90
2018-08-23T02:43:22.976Z,49.90
2018-08-23T02:44:27.487Z,49.90
2018-08-23T02:45:31.913Z,49.90
2018-08-23T02:46:36.412Z,49.90
2018-08-23T02:47:40.924Z,49.90
2018-08-23T02:48:45.310Z,49.90
2018-08-23T02:49:49.587Z,49.90
2018-08-23T02:50:53.988Z,49.90
2018-08-23T02:51:58.331Z,49.90
2018-08-23T02:53:02.680Z,49.90
2018-08-23T02:54:07.084Z,50.00
2018-08-23T02:55:11.654Z,49.90
2018-08-23T02:56:16.175Z,49.90
2018-08-23T02:57:20.617Z,49.90
2018-08-23T02:58:25.279Z,49.90
2018-08-23T02:59:30.247Z,49.90
2018-08-23T03:00:34.671Z,49.90
2018-08-23T03:01:39.243Z,49.90
2018-08-23T03:02:43.890Z,49.90
2018-08-23T03:03:48.466Z,50.00
2018-08-23T03:04:53.034Z,50.00
2018-08-23T03:05:57.595Z,50.00
2018-08-23T03:07:02.185Z,50.00
2018-08-23T03:08:06.764Z,50.00
2018-08-23T03:09:11.153Z,50.00
2018-08-23T03:10:15.563Z,50.00
2018-08-23T03:11:20.025Z,50.00
2018-08-23T03:12:24.671Z,50.00
2018-08-23T03:13:29.125Z,50.00
2018-08-23T03:14:33.895Z,50.00
2018-08-23T03:15:38.472Z,50.00
2018-08-23T03:16:42.950Z,50.00
2018-08-23T03:17:47.227Z,50.00
2018-08-23T03:18:51.815Z,50.00
2018-08-23T03:19:56.225Z,50.00
2018-08-23T03:21:00.649Z,50.00
2018-08-23T03:22:05.192Z,50.10
2018-08-23T03:23:09.780Z,50.00
2018-08-23T03:24:14.317Z,50.00
2018-08-23T03:25:18.741Z,50.10
2018-08-23T03:26:23.532Z,50.00
2018-08-23T03:27:28.195Z,50.00
2018-08-23T03:28:32.618Z,50.00
2018-08-23T03:29:37.119Z,50.00
2018-08-23T03:30:41.566Z,50.10
2018-08-23T03:31:45.852Z,50.00
2018-08-23T03:32:50.380Z,50.00
2018-08-23T03:33:54.706Z,50.10
2018-08-23T03:34:59.119Z,50.10
2018-08-23T03:36:03.608Z,50.10
2018-08-23T03:37:08.047Z,50.10
2018-08-23T03:38:12.384Z,50.10
2018-08-23T03:39:16.837Z,50.10
2018-08-23T03:40:21.360Z,50.10
2018-08-23T03:41:26.208Z,50.10
2018-08-23T03:42:31.199Z,50.10
2018-08-23T03:43:35.958Z,50.20
2018-08-23T03:44:40.638Z,50.10
2018-08-23T03:45:45.152Z,50.10
2018-08-23T03:46:49.593Z,50.10
2018-08-23T03:47:02.315Z,50.20
2018-08-23T03:48:06.698Z,50.20
2018-08-23T03:49:11.045Z,50.20
2018-08-23T03:50:15.336Z,50.10
2018-08-23T03:51:19.649Z,50.20
2018-08-23T03:52:25.275Z,50.10
2018-08-23T03:53:30.064Z,50.20
2018-08-23T03:54:34.590Z,50.20
2018-08-23T03:55:39.040Z,50.10
2018-08-23T03:56:43.446Z,50.20
2018-08-23T03:57:47.762Z,50.20
2018-08-23T03:58:52.027Z,50.20
2018-08-23T03:59:56.323Z,50.20
2018-08-23T04:01:00.754Z,50.20
2018-08-23T04:02:05.095Z,50.20
2018-08-23T04:03:09.431Z,50.30
2018-08-23T04:04:13.902Z,50.20
2018-08-23T04:05:18.354Z,50.30
2018-08-23T04:06:22.913Z,50.20
2018-08-23T04:07:27.419Z,50.20
2018-08-23T04:08:31.993Z,50.20
2018-08-23T04:09:36.484Z,50.20
2018-08-23T04:10:41.061Z,50.20
2018-08-23T04:11:45.595Z,50.30
2018-08-23T04:12:49.992Z,50.30
2018-08-23T04:13:54.304Z,50.20
2018-08-23T04:14:58.685Z,50.30
2018-08-23T04:16:03.487Z,50.20
2018-08-23T04:17:08.030Z,50.30
2018-08-23T04:18:12.365Z,50.30
2018-08-23T04:19:16.826Z,50.30
2018-08-23T04:20:21.402Z,50.20
2018-08-23T04:21:27.116Z,50.30
2018-08-23T04:22:31.709Z,50.30
2018-08-23T04:23:35.981Z,50.30
2018-08-23T04:24:40.305Z,50.30
2018-08-23T04:25:45.604Z,50.40
2018-08-23T04:26:50.083Z,50.30
2018-08-23T04:27:54.459Z,50.30
2018-08-23T04:28:59.102Z,50.30
2018-08-23T04:30:03.617Z,50.30
2018-08-23T04:31:08.245Z,50.30
2018-08-23T04:32:12.872Z,50.40
2018-08-23T04:33:17.996Z,50.30
2018-08-23T04:34:22.367Z,50.30
2018-08-23T04:35:26.880Z,50.30
2018-08-23T04:36:31.464Z,50.30
2018-08-23T04:37:35.994Z,50.30
2018-08-23T04:38:40.438Z,50.40
2018-08-23T04:39:45.021Z,50.40
2018-08-23T04:40:49.667Z,50.40
2018-08-23T04:41:54.278Z,50.40
2018-08-23T04:42:58.673Z,50.30
2018-08-23T04:44:03.056Z,50.30
2018-08-23T04:45:07.432Z,50.30
2018-08-23T04:46:11.905Z,50.30
2018-08-23T04:47:17.271Z,50.30
2018-08-23T04:48:21.731Z,50.30
2018-08-23T04:49:26.570Z,50.30
2018-08-23T04:50:31.082Z,50.30
2018-08-23T04:51:35.593Z,50.20
2018-08-23T04:52:40.342Z,50.30
2018-08-23T04:53:45.076Z,50.20
2018-08-23T04:54:49.741Z,50.20
2018-08-23T04:55:54.408Z,50.20
2018-08-23T04:56:58.795Z,50.30
2018-08-23T04:58:03.571Z,50.20
2018-08-23T04:59:08.137Z,50.20
2018-08-23T05:00:12.754Z,50.20
2018-08-23T05:01:17.387Z,50.20
2018-08-23T05:02:22.116Z,50.30
2018-08-23T05:03:26.687Z,50.20
2018-08-23T05:04:31.326Z,50.20
2018-08-23T05:05:35.995Z,50.20
2018-08-23T05:06:40.616Z,50.20
2018-08-23T05:07:45.113Z,50.20
2018-08-23T05:08:49.666Z,50.20
2018-08-23T05:09:54.094Z,50.20
2018-08-23T05:10:58.383Z,50.20
2018-08-23T05:12:02.916Z,50.20
2018-08-23T05:13:07.234Z,50.20
2018-08-23T05:14:11.858Z,50.10
2018-08-23T05:15:16.285Z,50.20
2018-08-23T05:16:21.018Z,50.80
2018-08-23T05:17:25.595Z,50.20
2018-08-23T05:18:30.872Z,50.20
2018-08-23T05:19:35.491Z,50.10
2018-08-23T05:20:40.755Z,50.10
2018-08-23T05:21:45.347Z,50.10
2018-08-23T05:22:49.677Z,50.20
2018-08-23T05:23:54.145Z,50.10
2018-08-23T05:24:58.804Z,50.10
2018-08-23T05:26:03.449Z,50.10
2018-08-23T05:27:08.294Z,50.10
2018-08-23T05:28:12.884Z,50.10
2018-08-23T05:29:17.422Z,50.10
2018-08-23T05:30:21.738Z,50.10
2018-08-23T05:31:26.237Z,50.10
2018-08-23T05:32:30.812Z,50.10
2018-08-23T05:33:35.267Z,50.10
2018-08-23T05:34:39.694Z,50.10
2018-08-23T05:35:44.415Z,50.10
2018-08-23T05:36:49.030Z,50.10
2018-08-23T05:37:53.558Z,50.10
2018-08-23T05:38:57.993Z,50.10
2018-08-23T05:40:02.604Z,50.10
2018-08-23T05:41:07.256Z,50.10
2018-08-23T05:42:11.795Z,50.10
2018-08-23T05:43:16.359Z,50.10
2018-08-23T05:44:20.852Z,50.10
2018-08-23T05:45:25.781Z,50.10
2018-08-23T05:46:30.346Z,50.10
2018-08-23T05:47:35.168Z,50.10
2018-08-23T05:48:39.512Z,50.10
2018-08-23T05:49:43.975Z,50.10
2018-08-23T05:50:48.634Z,50.10
2018-08-23T05:51:53.031Z,50.10
2018-08-23T05:52:57.609Z,50.10
2018-08-23T05:54:02.245Z,50.10
2018-08-23T05:55:06.658Z,50.10
2018-08-23T05:56:11.110Z,50.10
2018-08-23T05:57:15.666Z,50.10
2018-08-23T05:58:20.034Z,50.10
2018-08-23T05:59:24.594Z,50.20
2018-08-23T06:00:29.118Z,50.30
2018-08-23T06:01:33.744Z,50.50
2018-08-23T06:02:38.277Z,50.60
2018-08-23T06:03:42.705Z,50.80
2018-08-23T06:04:47.123Z,51.00
2018-08-23T06:05:51.677Z,51.20
2018-08-23T06:06:56.242Z,51.40
2018-08-23T06:08:00.690Z,51.50
2018-08-23T06:09:05.307Z,51.60
2018-08-23T06:10:09.873Z,51.70
2018-08-23T06:11:14.346Z,51.80
2018-08-23T06:12:18.992Z,51.90
2018-08-23T06:13:23.376Z,52.00
2018-08-23T06:14:27.972Z,52.10
2018-08-23T06:15:33.158Z,52.10
2018-08-23T06:16:37.524Z,52.10
2018-08-23T06:17:42.041Z,52.00
2018-08-23T06:18:46.481Z,52.00
2018-08-23T06:19:50.919Z,52.10
2018-08-23T06:20:56.577Z,52.10
2018-08-23T06:22:01.012Z,52.20
2018-08-23T06:23:05.438Z,52.10
2018-08-23T06:24:09.851Z,52.10
2018-08-23T06:25:14.276Z,52.10
2018-08-23T06:26:19.009Z,52.10
2018-08-23T06:27:23.742Z,52.00
2018-08-23T06:28:28.332Z,52.00
2018-08-23T06:29:32.778Z,52.00
2018-08-23T06:30:40.809Z,52.10
2018-08-23T06:31:46.224Z,52.20
2018-08-23T06:32:50.892Z,52.40
2018-08-23T06:33:56.219Z,52.50
2018-08-23T06:35:00.562Z,52.60
2018-08-23T06:36:05.207Z,52.70
2018-08-23T06:37:09.809Z,52.80
2018-08-23T06:38:14.477Z,52.80
2018-08-23T06:39:19.059Z,52.90
2018-08-23T06:40:23.680Z,52.90
2018-08-23T06:41:28.076Z,53.00
2018-08-23T06:42:32.746Z,53.00
2018-08-23T06:43:37.229Z,53.10
2018-08-23T06:44:41.888Z,53.20
2018-08-23T06:45:46.332Z,53.30
2018-08-23T06:46:51.213Z,53.30
2018-08-23T06:47:55.860Z,53.40
2018-08-23T06:49:00.544Z,53.40
2018-08-23T06:50:05.006Z,53.40
2018-08-23T06:51:09.661Z,53.40
2018-08-23T06:52:14.954Z,53.30
2018-08-23T06:53:19.563Z,53.40
2018-08-23T06:54:24.381Z,53.30
2018-08-23T06:55:28.921Z,53.40
2018-08-23T06:56:33.571Z,53.40
2018-08-23T06:57:38.262Z,53.40
2018-08-23T06:58:42.687Z,53.40
2018-08-23T06:59:47.130Z,53.30
2018-08-23T07:00:51.671Z,53.30
2018-08-23T07:01:56.857Z,53.30
2018-08-23T07:03:01.392Z,53.40
2018-08-23T07:04:05.894Z,53.40
2018-08-23T07:05:10.450Z,53.30
2018-08-23T07:06:14.904Z,53.40
2018-08-23T07:07:19.297Z,53.50
2018-08-23T07:08:23.946Z,53.50
2018-08-23T07:09:28.500Z,53.50
2018-08-23T07:10:33.117Z,53.50
2018-08-23T07:11:38.287Z,53.60
2018-08-23T07:12:42.802Z,53.50
2018-08-23T07:13:48.276Z,53.50
2018-08-23T07:14:52.711Z,53.50
2018-08-23T07:15:57.103Z,53.60
2018-08-23T07:17:01.699Z,53.70
2018-08-23T07:18:06.156Z,53.80
2018-08-23T07:19:10.875Z,53.80
2018-08-23T07:20:15.427Z,53.70
2018-08-23T07:21:19.935Z,53.80
2018-08-23T07:22:24.287Z,53.80
2018-08-23T07:23:28.712Z,53.70
2018-08-23T07:24:33.325Z,53.70
2018-08-23T07:25:37.672Z,53.80
2018-08-23T07:26:42.252Z,53.90
2018-08-23T07:27:46.839Z,53.90
2018-08-23T07:28:51.312Z,53.90
2018-08-23T07:29:55.979Z,54.00
2018-08-23T07:31:00.278Z,54.00
2018-08-23T07:32:04.729Z,54.00
2018-08-23T07:33:09.205Z,53.90
2018-08-23T07:34:13.537Z,53.90
2018-08-23T07:35:17.877Z,54.00
2018-08-23T07:36:22.282Z,54.00
2018-08-23T07:37:26.665Z,54.00
2018-08-23T07:38:31.013Z,54.10
2018-08-23T07:39:35.501Z,54.20
2018-08-23T07:40:39.867Z,54.20
2018-08-23T07:41:44.521Z,54.20
2018-08-23T07:42:48.937Z,54.20
2018-08-23T07:43:53.766Z,54.20
2018-08-23T07:44:58.208Z,54.20
2018-08-23T07:46:02.667Z,54.00
2018-08-23T07:47:07.299Z,53.90
2018-08-23T07:48:11.940Z,54.00
2018-08-23T07:49:16.505Z,53.90
2018-08-23T07:50:21.057Z,53.90
2018-08-23T07:51:25.963Z,53.90
2018-08-23T07:52:30.592Z,53.90
2018-08-23T07:53:35.364Z,53.90
2018-08-23T07:54:40.688Z,53.90
2018-08-23T07:55:45.340Z,54.10
2018-08-23T07:56:49.697Z,54.00
2018-08-23T07:57:55.805Z,54.10
2018-08-23T07:59:00.378Z,54.00
2018-08-23T08:00:05.012Z,53.80
2018-08-23T08:01:09.626Z,53.70
2018-08-23T08:02:14.196Z,53.80
2018-08-23T08:03:19.201Z,53.70
2018-08-23T08:04:23.834Z,53.60
2018-08-23T08:05:29.874Z,53.50
2018-08-23T08:06:34.509Z,53.80
2018-08-23T08:07:38.963Z,53.80
2018-08-23T08:08:43.414Z,54.70
2018-08-23T08:09:47.892Z,55.20
2018-08-23T08:10:52.468Z,55.40
2018-08-23T08:11:56.824Z,55.60
2018-08-23T08:13:01.386Z,55.50
2018-08-23T08:14:06.108Z,55.20
2018-08-23T08:15:11.376Z,55.00
2018-08-23T08:16:16.050Z,54.90
2018-08-23T08:17:20.631Z,54.80
2018-08-23T08:18:25.287Z,54.60
2018-08-23T08:19:29.799Z,54.50
2018-08-23T08:20:34.255Z,54.40
2018-08-23T08:21:38.623Z,54.40
2018-08-23T08:22:43.146Z,54.40
2018-08-23T08:23:47.486Z,54.40
2018-08-23T08:24:52.406Z,54.40
2018-08-23T08:25:57.299Z,54.30
2018-08-23T08:27:01.815Z,54.30
2018-08-23T08:28:06.481Z,54.20
2018-08-23T08:29:11.028Z,54.20
2018-08-23T08:30:15.616Z,54.20
2018-08-23T08:31:20.251Z,54.20
2018-08-23T08:32:24.718Z,54.10
2018-08-23T08:33:30.212Z,54.10
2018-08-23T08:34:34.748Z,54.20
2018-08-23T08:35:39.351Z,54.20
2018-08-23T08:36:43.966Z,54.20
2018-08-23T08:37:48.744Z,54.20
2018-08-23T08:38:56.093Z,54.20
2018-08-23T08:40:00.669Z,54.10
2018-08-23T08:41:05.197Z,54.10
2018-08-23T08:42:09.705Z,54.30
2018-08-23T08:43:14.476Z,55.00
2018-08-23T08:44:18.955Z,55.40
2018-08-23T08:45:23.604Z,55.00
2018-08-23T08:46:28.781Z,54.80
2018-08-23T08:47:33.356Z,54.50
2018-08-23T08:48:38.086Z,54.40
2018-08-23T08:49:42.872Z,54.20
2018-08-23T08:50:47.662Z,54.20
2018-08-23T08:51:52.424Z,54.10
2018-08-23T08:52:57.318Z,54.00
2018-08-23T08:54:02.082Z,53.90
2018-08-23T08:55:06.686Z,53.90
2018-08-23T08:56:11.314Z,53.80
2018-08-23T08:57:16.192Z,53.80
2018-08-23T08:58:20.980Z,53.80
2018-08-23T08:59:25.779Z,53.90
2018-08-23T09:00:30.248Z,53.90
2018-08-23T09:01:34.927Z,54.00
2018-08-23T09:02:39.569Z,54.00
2018-08-23T09:03:44.205Z,54.20
2018-08-23T09:04:48.750Z,54.20
2018-08-23T09:05:53.148Z,54.80
2018-08-23T09:06:57.839Z,55.60
2018-08-23T09:08:02.247Z,55.50
2018-08-23T09:09:06.867Z,55.20
2018-08-23T09:10:11.374Z,55.50
2018-08-23T09:11:15.938Z,55.50
2018-08-23T09:12:20.314Z,55.70
2018-08-23T09:13:24.839Z,55.30
2018-08-23T09:14:29.339Z,55.30
2018-08-23T09:15:35.177Z,55.30
2018-08-23T09:16:39.777Z,54.90
2018-08-23T09:17:44.329Z,54.90
2018-08-23T09:18:48.743Z,55.10
2018-08-23T09:19:53.143Z,55.00
2018-08-23T09:20:57.806Z,55.90
2018-08-23T09:22:02.494Z,55.50
2018-08-23T09:23:07.030Z,55.50
2018-08-23T09:24:11.752Z,55.40
2018-08-23T09:25:16.300Z,55.30
2018-08-23T09:26:20.852Z,55.60
2018-08-23T09:27:25.415Z,55.60
2018-08-23T09:28:30.109Z,55.50
2018-08-23T09:29:35.477Z,55.50
2018-08-23T09:30:40.407Z,55.40
2018-08-23T09:31:45.051Z,55.70
2018-08-23T09:32:49.681Z,55.70
2018-08-23T09:33:54.417Z,55.80
2018-08-23T09:34:59.175Z,55.90
2018-08-23T09:36:03.990Z,55.70
2018-08-23T09:37:08.667Z,55.60
2018-08-23T09:38:13.395Z,55.70
2018-08-23T09:39:18.401Z,56.20
2018-08-23T09:40:23.108Z,56.60
2018-08-23T09:41:27.702Z,56.60
2018-08-23T09:42:32.302Z,56.50
2018-08-23T09:43:36.841Z,56.00
2018-08-23T09:44:41.361Z,56.20
2018-08-23T09:45:46.084Z,56.40
2018-08-23T09:46:50.646Z,56.60
2018-08-23T09:47:55.964Z,56.60
2018-08-23T09:49:00.564Z,56.60
2018-08-23T09:50:05.251Z,56.60
2018-08-23T09:51:09.694Z,56.20
2018-08-23T09:52:14.910Z,55.70
2018-08-23T09:53:19.471Z,55.40
2018-08-23T09:54:24.188Z,55.10
2018-08-23T09:55:28.697Z,54.90
2018-08-23T09:56:33.350Z,54.80
2018-08-23T09:57:37.853Z,54.60
2018-08-23T09:58:42.674Z,54.50
2018-08-23T09:59:47.037Z,54.40
2018-08-23T10:00:51.547Z,54.40
2018-08-23T10:01:56.103Z,54.40
2018-08-23T10:03:00.789Z,54.30
2018-08-23T10:04:05.544Z,54.40
2018-08-23T10:05:10.242Z,54.30
2018-08-23T10:06:15.420Z,54.30
2018-08-23T10:07:20.154Z,54.30
2018-08-23T10:08:24.611Z,54.30
2018-08-23T10:09:29.122Z,54.30
2018-08-23T10:10:33.660Z,54.30
2018-08-23T10:11:38.326Z,54.30
2018-08-23T10:12:42.728Z,54.30
2018-08-23T10:13:47.213Z,54.20
2018-08-23T10:14:51.689Z,54.20
2018-08-23T10:15:56.000Z,54.30
2018-08-23T10:17:00.514Z,54.30
2018-08-23T10:18:05.164Z,54.20
2018-08-23T10:19:09.671Z,54.30
2018-08-23T10:20:14.134Z,54.20
2018-08-23T10:21:18.640Z,54.20
2018-08-23T10:22:23.111Z,54.20
2018-08-23T10:23:27.742Z,54.20
2018-08-23T10:24:32.438Z,54.10
2018-08-23T10:25:38.288Z,54.10
2018-08-23T10:26:43.133Z,54.10
2018-08-23T10:27:47.777Z,54.10
2018-08-23T10:28:53.031Z,54.20
2018-08-23T10:29:57.779Z,54.10
2018-08-23T10:31:02.717Z,54.10
2018-08-23T10:32:07.504Z,54.10
2018-08-23T10:33:12.071Z,54.20
2018-08-23T10:34:16.722Z,54.10
2018-08-23T10:35:21.178Z,54.10
2018-08-23T10:36:25.766Z,54.10
2018-08-23T10:37:30.164Z,54.10
2018-08-23T10:38:34.918Z,54.10
2018-08-23T10:39:39.376Z,54.10
2018-08-23T10:40:43.904Z,54.10
2018-08-23T10:41:49.328Z,54.10
2018-08-23T10:42:54.184Z,54.00
2018-08-23T10:43:58.660Z,54.10
2018-08-23T10:45:03.094Z,54.00
2018-08-23T10:46:07.561Z,54.00
2018-08-23T10:47:11.938Z,54.00
2018-08-23T10:48:16.647Z,54.00
2018-08-23T10:49:21.336Z,54.00
2018-08-23T10:50:25.973Z,54.00
2018-08-23T10:51:32.502Z,54.00
2018-08-23T10:52:37.252Z,54.00
2018-08-23T10:53:41.926Z,54.00
2018-08-23T10:54:46.847Z,54.00
2018-08-23T10:55:51.246Z,53.90
2018-08-23T10:56:55.708Z,53.90
2018-08-23T10:58:00.241Z,54.00
2018-08-23T10:59:04.938Z,53.90
2018-08-23T11:00:09.454Z,53.90
2018-08-23T11:01:14.033Z,54.00
2018-08-23T11:02:18.489Z,53.90
2018-08-23T11:03:25.991Z,53.90
2018-08-23T11:04:30.796Z,53.90
2018-08-23T11:05:35.493Z,53.90
2018-08-23T11:06:40.087Z,53.90
2018-08-23T11:07:45.050Z,53.90
2018-08-23T11:08:49.578Z,53.90
2018-08-23T11:09:54.355Z,53.90
2018-08-23T11:10:58.907Z,53.80
2018-08-23T11:12:04.371Z,53.80
2018-08-23T11:13:09.060Z,53.80
2018-08-23T11:14:13.551Z,53.80
2018-08-23T11:15:18.008Z,53.80
2018-08-23T11:16:23.861Z,53.70
2018-08-23T11:17:34.203Z,53.70
2018-08-23T11:18:39.023Z,53.70
2018-08-23T11:19:45.996Z,53.70
2018-08-23T11:20:51.690Z,53.70
2018-08-23T11:22:00.302Z,53.70
2018-08-23T11:23:05.916Z,53.70
2018-08-23T11:24:12.446Z,53.70
2018-08-23T11:25:18.291Z,53.70
2018-08-23T11:26:23.025Z,53.70
2018-08-23T11:27:27.539Z,53.70
2018-08-23T11:28:32.009Z,53.60
2018-08-23T11:29:36.571Z,53.60
2018-08-23T11:30:41.114Z,53.60
2018-08-23T11:31:45.835Z,53.60
2018-08-23T11:32:50.723Z,53.60
2018-08-23T11:33:55.208Z,53.60
2018-08-23T11:34:59.858Z,53.50
2018-08-23T11:36:04.474Z,53.60
2018-08-23T11:37:09.146Z,53.60
2018-08-23T11:38:13.602Z,53.60
2018-08-23T11:39:18.141Z,53.60
2018-08-23T11:40:22.715Z,53.60
2018-08-23T11:41:27.431Z,53.70
2018-08-23T11:42:32.035Z,53.60
2018-08-23T11:43:36.733Z,53.50
2018-08-23T11:44:41.319Z,53.50
2018-08-23T11:45:47.557Z,53.50
2018-08-23T11:46:52.233Z,53.80
2018-08-23T11:47:56.745Z,53.90
2018-08-23T11:49:01.553Z,53.80
2018-08-23T11:50:06.177Z,54.00
2018-08-23T11:51:10.736Z,54.00
2018-08-23T11:52:15.371Z,53.90
2018-08-23T11:53:19.961Z,53.90
2018-08-23T11:54:24.513Z,53.90
2018-08-23T11:55:29.046Z,53.80
2018-08-23T11:56:33.673Z,53.90
2018-08-23T11:57:38.422Z,53.70
2018-08-23T11:58:46.936Z,53.60
2018-08-23T11:59:51.778Z,53.50
2018-08-23T12:00:56.344Z,53.40
2018-08-23T12:02:00.870Z,53.40
2018-08-23T12:03:05.410Z,53.30
2018-08-23T12:04:09.899Z,53.30
2018-08-23T12:05:14.498Z,53.30
2018-08-23T12:06:19.264Z,53.80
2018-08-23T12:07:23.621Z,54.00
2018-08-23T12:08:27.932Z,54.30
2018-08-23T12:09:32.530Z,55.00
2018-08-23T12:10:37.064Z,55.10
2018-08-23T12:11:41.626Z,54.90
2018-08-23T12:12:46.362Z,54.60
2018-08-23T12:13:51.749Z,54.40
2018-08-23T12:14:56.382Z,54.10
2018-08-23T12:16:01.039Z,54.00
2018-08-23T12:17:05.425Z,53.80
2018-08-23T12:18:10.135Z,53.70
2018-08-23T12:19:14.708Z,53.60
2018-08-23T12:20:19.351Z,53.60
2018-08-23T12:21:23.854Z,53.50
2018-08-23T12:22:28.308Z,53.40
2018-08-23T12:23:32.769Z,53.40
2018-08-23T12:23:45.149Z,53.40
2018-08-23T12:24:49.701Z,53.40
2018-08-23T12:25:54.204Z,53.30
2018-08-23T12:26:58.718Z,53.30
2018-08-23T12:28:03.274Z,53.30
2018-08-23T12:29:07.918Z,53.30
2018-08-23T12:30:12.364Z,53.30
2018-08-23T12:31:16.848Z,53.30
2018-08-23T12:32:21.317Z,53.30
2018-08-23T12:33:25.948Z,53.30
2018-08-23T12:34:30.507Z,53.20
2018-08-23T12:34:44.315Z,53.20
2018-08-23T12:35:48.968Z,53.20
2018-08-23T12:36:53.628Z,53.20
2018-08-23T12:37:58.192Z,53.20
2018-08-23T12:39:02.698Z,53.10
2018-08-23T12:40:07.305Z,53.20
2018-08-23T12:41:11.767Z,53.20
2018-08-23T12:42:16.285Z,53.20
2018-08-23T12:43:21.009Z,53.10
2018-08-23T12:44:25.509Z,53.10
2018-08-23T12:45:29.906Z,53.10
2018-08-23T12:46:34.373Z,53.10
2018-08-23T12:47:38.770Z,53.10
2018-08-23T12:48:43.312Z,53.20
2018-08-23T12:49:47.982Z,53.20
2018-08-23T12:50:52.940Z,53.10
2018-08-23T12:51:57.700Z,53.10
2018-08-23T12:53:02.170Z,53.10
2018-08-23T12:54:06.893Z,53.10
2018-08-23T12:55:11.487Z,53.10
2018-08-23T12:56:16.495Z,53.00
2018-08-23T12:57:21.142Z,53.00
2018-08-23T12:58:25.652Z,53.00
2018-08-23T12:59:30.234Z,53.00
2018-08-23T13:00:34.703Z,53.00
2018-08-23T13:01:39.247Z,53.00
2018-08-23T13:02:43.885Z,53.00
2018-08-23T13:03:48.337Z,53.00
2018-08-23T13:04:53.409Z,53.00
2018-08-23T13:05:58.072Z,53.00
2018-08-23T13:07:02.785Z,53.00
2018-08-23T13:08:07.341Z,53.00
2018-08-23T13:09:11.910Z,53.00
2018-08-23T13:10:16.496Z,53.00
2018-08-23T13:11:21.021Z,53.00
2018-08-23T13:12:25.672Z,53.00
2018-08-23T13:13:30.163Z,53.00
2018-08-23T13:14:34.561Z,53.00
2018-08-23T13:15:39.193Z,53.00
2018-08-23T13:16:43.698Z,53.00
2018-08-23T13:17:48.136Z,53.00
2018-08-23T13:18:52.639Z,53.00
2018-08-23T13:19:57.363Z,53.00
2018-08-23T13:21:01.984Z,53.10
2018-08-23T13:22:06.623Z,53.10
2018-08-23T13:23:10.977Z,53.10
2018-08-23T13:24:15.576Z,53.00
2018-08-23T13:25:20.176Z,53.00
2018-08-23T13:26:24.787Z,53.00
2018-08-23T13:27:29.402Z,52.90
2018-08-23T13:28:34.052Z,52.90
2018-08-23T13:29:38.434Z,52.80
2018-08-23T13:30:42.935Z,52.90
2018-08-23T13:31:48.021Z,52.80
2018-08-23T13:32:52.639Z,52.90
2018-08-23T13:33:57.346Z,52.90
2018-08-23T13:35:01.895Z,52.90
2018-08-23T13:36:06.427Z,52.90
2018-08-23T13:37:11.390Z,52.90
2018-08-23T13:38:15.897Z,52.80
2018-08-23T13:39:20.471Z,52.80
2018-08-23T13:40:24.881Z,52.80
2018-08-23T13:41:29.702Z,52.80
2018-08-23T13:42:34.574Z,52.70
2018-08-23T13:43:39.246Z,52.70
2018-08-23T13:44:43.823Z,52.70
2018-08-23T13:45:48.377Z,52.70
2018-08-23T13:46:52.884Z,52.70
2018-08-23T13:47:57.393Z,52.70
2018-08-23T13:49:02.790Z,52.70
2018-08-23T13:50:07.312Z,52.70